Time;durP1;ratioP1;P1;durP2;ratioP2;P2;SDS_P1;SDS_P2;PMS_P1;PMS_P2;Temp;Humidity;BMP_temperature;BMP_pressure;BME280_temperature;BME280_humidity;BME280_pressure;Samples;Min_cycle;Max_cycle;Signal;HPM_P1;HPM_P2
2022/08/13 00:00:28;;;;;;;3.50;3.20;;;;;;;18.86;87.82;101846.69;5003483;28;20037;-80
2022/08/13 00:02:56;;;;;;;5.07;3.25;;;;;;;18.83;87.59;101849.59;4982281;28;20296;-80
2022/08/13 00:05:23;;;;;;;4.85;3.28;;;;;;;18.81;87.26;101838.13;5020852;28;20037;-80
2022/08/13 00:07:50;;;;;;;3.63;3.05;;;;;;;18.78;87.14;101838.28;5017914;28;20037;-81
2022/08/13 00:10:30;;;;;;;4.75;3.47;;;;;;;18.78;87.04;101848.19;5003852;28;20153;-80
2022/08/13 00:13:00;;;;;;;4.07;3.33;;;;;;;18.76;87.06;101833.97;5023015;28;20029;-80
2022/08/13 00:15:32;;;;;;;4.75;3.55;;;;;;;18.72;86.70;101842.25;5008070;28;20043;-80
2022/08/13 00:18:12;;;;;;;5.32;3.70;;;;;;;18.71;86.83;101842.34;5021678;28;20041;-80
2022/08/13 00:20:45;;;;;;;3.97;3.28;;;;;;;18.68;86.65;101837.19;5019874;28;20044;-81
2022/08/13 00:23:14;;;;;;;3.95;3.25;;;;;;;18.66;86.17;101831.03;5022392;28;20068;-81
2022/08/13 00:25:44;;;;;;;5.35;3.50;;;;;;;18.65;86.57;101837.38;5023975;28;20033;-81
2022/08/13 00:28:11;;;;;;;5.22;3.63;;;;;;;18.62;86.47;101829.53;5021020;28;20638;-82
2022/08/13 00:30:38;;;;;;;5.15;3.88;;;;;;;18.57;87.05;101836.03;5024153;28;20431;-81
2022/08/13 00:33:12;;;;;;;3.60;3.30;;;;;;;18.54;87.57;101833.56;5020754;28;20535;-81
2022/08/13 00:35:42;;;;;;;5.47;3.75;;;;;;;18.52;87.63;101839.97;4986532;28;20037;-81
2022/08/13 00:38:15;;;;;;;4.18;3.45;;;;;;;18.49;88.01;101830.31;5019835;28;20033;-81
2022/08/13 00:40:42;;;;;;;5.28;3.50;;;;;;;18.48;88.22;101833.06;5020849;28;20030;-81
2022/08/13 00:43:10;;;;;;;3.60;3.22;;;;;;;18.46;88.22;101827.81;5000411;28;20036;-81
2022/08/13 00:45:35;;;;;;;4.68;3.70;;;;;;;18.44;88.36;101827.94;5020947;28;20048;-81
2022/08/13 00:50:49;;;;;;;5.22;3.70;;;;;;;18.38;88.48;101836.34;5020198;28;20029;-81
2022/08/13 00:53:19;;;;;;;4.60;4.03;;;;;;;18.36;88.94;101832.88;5020428;28;20049;-80
2022/08/13 00:55:48;;;;;;;5.97;4.03;;;;;;;18.31;89.02;101833.19;5021473;28;20060;-80
2022/08/13 00:58:21;;;;;;;4.80;3.72;;;;;;;18.26;89.00;101826.41;4998762;28;20046;-81
2022/08/13 01:00:50;;;;;;;;;;;;;;;18.22;90.94;101828.41;4996204;28;20045;-80
2022/08/13 01:03:17;;;;;;;5.47;3.88;;;;;;;18.18;89.37;101830.41;5002908;28;19971;-80
2022/08/13 01:05:44;;;;;;;6.13;3.72;;;;;;;18.16;89.72;101823.44;5019211;28;20073;-80
2022/08/13 01:08:10;;;;;;;4.90;3.88;;;;;;;18.12;89.48;101821.88;5024566;28;20572;-80
2022/08/13 01:10:40;;;;;;;5.55;4.13;;;;;;;18.08;89.69;101823.91;5019043;28;20498;-80
2022/08/13 01:13:11;;;;;;;3.92;3.63;;;;;;;18.03;89.81;101826.00;5020470;28;20137;-80
2022/08/13 01:15:41;;;;;;;5.43;4.10;;;;;;;18.00;90.52;101818.13;5022915;28;20044;-80
2022/08/13 01:18:13;;;;;;;4.57;4.00;;;;;;;17.97;90.65;101829.88;5019587;28;20172;-80
2022/08/13 01:20:50;;;;;;;5.90;4.30;;;;;;;17.94;91.21;101821.19;5023933;28;20044;-80
2022/08/13 01:23:17;;;;;;;5.32;4.15;;;;;;;17.91;90.79;101823.09;5023628;28;20091;-80
2022/08/13 01:25:44;;;;;;;5.57;4.55;;;;;;;17.90;90.86;101820.50;5021687;28;20357;-80
2022/08/13 01:28:13;;;;;;;4.75;3.88;;;;;;;17.88;90.95;101822.44;5020404;28;20554;-80
2022/08/13 01:30:42;;;;;;;5.15;4.15;;;;;;;17.86;90.91;101824.34;5023935;28;20116;-80
2022/08/13 01:33:08;;;;;;;5.13;4.18;;;;;;;17.85;91.36;101817.25;5000176;28;20087;-81
2022/08/13 01:35:34;;;;;;;5.85;4.18;;;;;;;17.83;91.15;101828.06;5004052;28;20043;-79
2022/08/13 01:38:00;;;;;;;5.20;4.05;;;;;;;17.81;91.44;101821.06;5005392;28;20029;-79
2022/08/13 01:40:25;;;;;;;5.93;4.65;;;;;;;17.80;91.71;101825.56;5022906;28;20033;-80
2022/08/13 01:42:54;;;;;;;4.10;3.70;;;;;;;17.79;92.06;101823.84;4984590;28;20033;-80
2022/08/13 01:45:20;;;;;;;7.85;4.50;;;;;;;17.78;92.25;101822.97;5002059;28;20032;-80
2022/08/13 01:50:30;;;;;;;4.63;4.10;;;;;;;17.76;92.47;101819.53;5023674;28;20044;-80
2022/08/13 01:53:11;;;;;;;5.40;4.22;;;;;;;17.77;93.00;101823.09;5004690;28;20029;-80
2022/08/13 01:55:45;;;;;;;4.95;3.92;;;;;;;17.76;92.82;101822.22;5024086;28;20120;-80
2022/08/13 01:58:19;;;;;;;4.85;3.95;;;;;;;17.76;92.44;101824.88;5027282;28;20835;-80
2022/08/13 02:00:48;;;;;;;5.93;3.88;;;;;;;17.77;92.29;101820.41;5022625;28;20048;-80
2022/08/13 02:03:16;;;;;;;5.55;3.80;;;;;;;17.77;92.04;101820.41;5039763;28;20492;-80
2022/08/13 02:05:42;;;;;;;5.32;4.15;;;;;;;17.77;91.85;101820.41;5042731;28;20131;-80
2022/08/13 02:08:09;;;;;;;6.18;4.00;;;;;;;17.80;91.70;101819.38;5042736;28;20037;-80
2022/08/13 02:10:37;;;;;;;5.47;3.67;;;;;;;17.81;91.95;101821.06;5039665;28;20044;-80
2022/08/13 02:13:04;;;;;;;7.32;3.92;;;;;;;17.83;91.76;101813.81;5039980;28;20040;-79
2022/08/13 02:15:29;;;;;;;6.22;3.60;;;;;;;17.82;91.70;101820.13;5024175;28;20040;-80
2022/08/13 02:17:55;;;;;;;4.05;3.60;;;;;;;17.82;91.25;101820.13;5040243;28;20033;-79
2022/08/13 02:20:20;;;;;;;5.40;4.10;;;;;;;17.83;91.39;101819.16;5021803;28;20037;-80
2022/08/13 02:22:47;;;;;;;4.70;3.80;;;;;;;17.83;91.39;101817.34;5042879;28;20037;-80
2022/08/13 02:25:17;;;;;;;4.13;3.40;;;;;;;17.83;91.59;101819.16;5024764;28;20123;-79
2022/08/13 02:27:43;;;;;;;5.78;3.72;;;;;;;17.83;91.21;101819.16;5024159;28;20503;-80
2022/08/13 02:30:12;;;;;;;4.57;3.53;;;;;;;17.82;91.47;101810.25;5038257;28;20135;-80
2022/08/13 02:32:40;;;;;;;4.65;3.42;;;;;;;17.80;91.26;101817.53;5038856;28;20048;-80
2022/08/13 02:35:08;;;;;;;4.47;3.42;;;;;;;17.80;91.47;101814.84;5043921;28;20032;-80
2022/08/13 02:37:35;;;;;;;4.32;3.42;;;;;;;17.80;91.43;101816.69;5044796;28;20471;-81
2022/08/13 02:40:02;;;;;;;4.97;3.50;;;;;;;17.77;91.82;101818.56;5047667;28;20240;-81
2022/08/13 02:42:31;;;;;;;3.85;3.45;;;;;;;17.77;91.61;101815.88;5028842;28;20471;-81
2022/08/13 02:44:57;;;;;;;4.93;3.47;;;;;;;17.76;91.57;101816.84;5046709;28;20040;-81
2022/08/13 02:47:23;;;;;;;3.75;3.20;;;;;;;17.76;91.46;101818.69;5025618;28;20047;-81
2022/08/13 02:49:51;;;;;;;4.57;3.45;;;;;;;17.74;91.30;101816.09;5038979;28;20599;-82
2022/08/13 02:52:21;;;;;;;4.57;3.05;;;;;;;17.73;91.67;101824.22;5024883;28;20044;-81
2022/08/13 02:54:48;;;;;;;5.30;3.35;;;;;;;17.72;91.23;101827.84;5040366;28;20379;-81
2022/08/13 02:57:14;;;;;;;6.13;3.75;;;;;;;17.71;91.08;101829.66;5009111;28;20106;-81
2022/08/13 02:59:41;;;;;;;4.82;3.25;;;;;;;17.71;91.30;101834.16;5031174;28;20045;-81
2022/08/13 03:02:07;;;;;;;4.07;3.30;;;;;;;17.71;91.01;101831.47;5022735;28;20044;-81
2022/08/13 03:04:33;;;;;;;4.40;3.33;;;;;;;17.68;90.91;101827.16;5021849;28;20029;-81
2022/08/13 03:06:59;;;;;;;6.00;3.72;;;;;;;17.67;90.99;101820.09;5020566;28;21484;-81
2022/08/13 03:09:25;;;;;;;4.22;3.20;;;;;;;17.63;90.91;101818.53;5001720;28;20214;-82
2022/08/13 03:11:51;;;;;;;8.57;3.47;;;;;;;17.63;90.86;101818.53;5021882;28;20052;-81
2022/08/13 03:14:17;;;;;;;4.40;3.40;;;;;;;17.62;90.73;101828.41;5022850;28;20439;-80
2022/08/13 03:16:43;;;;;;;4.22;3.08;;;;;;;17.62;90.58;101828.41;5020002;28;20444;-81
2022/08/13 03:19:09;;;;;;;3.55;3.08;;;;;;;17.60;90.37;101829.47;5008291;28;20038;-80
2022/08/13 03:21:39;;;;;;;3.50;3.00;;;;;;;17.57;90.64;101824.28;5012468;28;20044;-80
2022/08/13 03:24:07;;;;;;;4.32;3.63;;;;;;;17.56;90.67;101827.91;5022353;28;20065;-80
2022/08/13 03:26:33;;;;;;;3.95;3.05;;;;;;;17.54;90.68;101827.13;5020788;28;20368;-80
2022/08/13 03:29:01;;;;;;;5.10;3.20;;;;;;;17.51;90.63;101831.72;5007893;28;20037;-80
2022/08/13 03:31:27;;;;;;;3.70;3.20;;;;;;;17.48;90.78;101826.53;5018069;28;20073;-80
2022/08/13 03:34:01;;;;;;;3.42;3.13;;;;;;;17.46;90.64;101828.47;5021311;28;20030;-80
2022/08/13 03:36:33;;;;;;;4.40;3.15;;;;;;;17.45;90.76;101825.88;5018043;28;20037;-80
2022/08/13 03:38:59;;;;;;;3.67;3.20;;;;;;;17.45;90.93;101832.09;5022205;28;20037;-80
2022/08/13 03:41:26;;;;;;;3.75;3.03;;;;;;;17.41;90.72;101825.19;5022724;28;20084;-80
2022/08/13 03:43:51;;;;;;;3.25;2.90;;;;;;;17.39;90.45;101821.75;5006091;28;20576;-80
2022/08/13 03:46:25;;;;;;;3.83;2.95;;;;;;;17.39;90.82;101821.75;5001531;28;20041;-80
2022/08/13 03:48:52;;;;;;;3.45;2.95;;;;;;;17.40;90.35;101830.63;5019908;28;20072;-80
2022/08/13 03:51:22;;;;;;;3.25;2.95;;;;;;;17.38;90.17;101825.38;5020773;28;20763;-80
2022/08/13 03:53:53;;;;;;;4.28;2.85;;;;;;;17.38;90.31;101820.88;5018205;28;20033;-80
2022/08/13 03:56:20;;;;;;;6.07;3.00;;;;;;;17.35;90.16;101817.50;5020486;28;20022;-80
2022/08/13 03:58:46;;;;;;;3.85;3.00;;;;;;;17.36;90.03;101808.53;5021945;28;21399;-80
2022/08/13 04:01:15;;;;;;;3.63;2.88;;;;;;;17.36;89.86;101822.78;5022236;28;20128;-80
2022/08/13 04:03:42;;;;;;;3.22;2.92;;;;;;;17.38;89.52;101817.34;5020477;28;20029;-80
2022/08/13 04:06:12;;;;;;;3.90;2.88;;;;;;;17.38;89.27;101820.03;5021757;28;20072;-80
2022/08/13 04:08:38;;;;;;;4.07;2.65;;;;;;;17.39;89.01;101816.41;5021547;28;20087;-80
2022/08/13 04:11:09;;;;;;;3.30;2.60;;;;;;;17.39;88.96;101816.41;5020487;28;20558;-79
2022/08/13 04:13:39;;;;;;;3.05;2.55;;;;;;;17.39;88.84;101816.41;5022119;28;20105;-80
2022/08/13 04:16:22;;;;;;;3.60;3.10;;;;;;;17.37;88.98;101819.16;5006782;28;20066;-79
2022/08/13 04:18:49;;;;;;;3.33;2.70;;;;;;;17.35;88.57;101822.88;5014544;28;20034;-80
2022/08/13 04:21:18;;;;;;;3.30;3.00;;;;;;;17.35;88.45;101814.84;5021951;28;20117;-81
2022/08/13 04:23:46;;;;;;;3.00;2.70;;;;;;;17.37;88.45;101820.94;5022945;28;20116;-80
2022/08/13 04:26:14;;;;;;;3.22;2.90;;;;;;;17.38;88.41;101817.34;5020377;28;20025;-80
2022/08/13 04:28:43;;;;;;;3.42;3.10;;;;;;;17.37;88.38;101819.16;5021538;28;20172;-80
2022/08/13 04:31:15;;;;;;;3.58;3.10;;;;;;;17.37;88.50;101828.97;5006826;28;20029;-81
2022/08/13 04:33:40;;;;;;;3.90;3.03;;;;;;;17.37;88.46;101826.31;5016865;28;20572;-80
2022/08/13 04:36:07;;;;;;;3.38;2.83;;;;;;;17.36;88.26;101825.47;5001672;28;20053;-80
2022/08/13 04:38:33;;;;;;;3.92;2.83;;;;;;;17.37;87.97;101823.63;5020092;28;20646;-80
2022/08/13 04:40:59;;;;;;;3.40;2.83;;;;;;;17.38;87.71;101826.22;5000383;28;20798;-80
2022/08/13 04:43:24;;;;;;;3.33;3.03;;;;;;;17.39;87.59;101824.44;5020907;28;20128;-80
2022/08/13 04:45:50;;;;;;;3.65;3.08;;;;;;;17.39;87.76;101827.09;5020498;28;20510;-80
2022/08/13 04:48:15;;;;;;;2.83;2.63;;;;;;;17.39;87.54;101821.75;5014264;28;20029;-81
2022/08/13 04:50:43;;;;;;;5.15;2.80;;;;;;;17.40;87.46;101819.91;5016934;28;20439;-81
2022/08/13 04:53:20;;;;;;;4.15;2.90;;;;;;;17.40;87.20;101823.47;5021029;28;20040;-80
2022/08/13 04:55:46;;;;;;;4.43;3.50;;;;;;;17.42;86.97;101826.06;5020474;28;20017;-80
2022/08/13 04:58:11;;;;;;;3.55;2.90;;;;;;;17.42;86.72;101821.56;5019410;28;22252;-81
2022/08/13 05:00:37;;;;;;;3.70;3.10;;;;;;;17.42;86.58;101832.25;5012736;28;20147;-81
2022/08/13 05:03:13;;;;;;;4.78;3.10;;;;;;;17.43;86.50;101825.94;5020406;28;20034;-81
2022/08/13 05:05:40;;;;;;;3.33;2.80;;;;;;;17.45;86.45;101825.88;5001838;28;20040;-80
2022/08/13 05:08:10;;;;;;;3.72;2.60;;;;;;;17.47;86.12;101831.97;5018985;28;20124;-81
2022/08/13 05:10:38;;;;;;;3.95;2.97;;;;;;;17.47;85.87;101827.50;5011905;28;20040;-81
2022/08/13 05:13:25;;;;;;;3.20;2.75;;;;;;;17.49;85.85;101827.41;5021392;28;20391;-81
2022/08/13 05:15:51;;;;;;;3.58;2.50;;;;;;;17.51;85.66;101829.06;5015108;28;20033;-81
2022/08/13 05:18:18;;;;;;;3.45;2.58;;;;;;;17.54;85.71;101829.81;5020307;28;20091;-81
2022/08/13 05:20:43;;;;;;;2.78;2.58;;;;;;;17.55;85.44;101827.06;5012592;28;20033;-80
2022/08/13 05:23:13;;;;;;;4.88;2.90;;;;;;;17.58;85.47;101832.22;4990507;28;20403;-81
2022/08/13 05:25:42;;;;;;;3.40;2.80;;;;;;;17.60;85.34;101835.66;5014507;28;20033;-81
2022/08/13 05:28:08;;;;;;;2.85;2.50;;;;;;;17.64;85.09;101830.97;5002604;28;20045;-81
2022/08/13 05:30:38;;;;;;;3.25;2.65;;;;;;;17.67;85.14;101829.94;5015794;28;20041;-81
2022/08/13 05:33:19;;;;;;;2.85;2.53;;;;;;;17.72;85.08;101828.72;5019112;28;20029;-81
2022/08/13 05:35:46;;;;;;;3.70;2.70;;;;;;;17.75;84.79;101828.53;5017206;28;20462;-81
2022/08/13 05:38:12;;;;;;;2.85;2.30;;;;;;;17.81;84.63;101829.97;5017379;28;20488;-81
2022/08/13 05:40:38;;;;;;;3.10;2.50;;;;;;;17.86;84.71;101827.88;5019751;28;20083;-80
2022/08/13 05:43:17;;;;;;;4.28;2.60;;;;;;;17.93;84.89;101825.69;5017560;28;20029;-81
2022/08/13 05:45:50;;;;;;;2.80;2.55;;;;;;;17.99;84.72;101824.44;5016284;28;20163;-81
2022/08/13 05:48:16;;;;;;;6.03;2.80;;;;;;;18.04;84.56;101830.38;5002884;28;20523;-81
2022/08/13 05:50:45;;;;;;;4.15;2.70;;;;;;;18.13;84.43;101826.28;5019370;28;20018;-81
2022/08/13 05:53:11;;;;;;;3.75;2.63;;;;;;;18.18;83.89;101825.06;5017692;28;20603;-81
2022/08/13 05:55:38;;;;;;;3.22;2.60;;;;;;;18.24;83.91;101826.47;5018774;28;20036;-81
2022/08/13 05:58:05;;;;;;;4.22;2.67;;;;;;;18.32;83.81;101824.19;5016549;28;20115;-81
2022/08/13 06:03:28;;;;;;;2.75;2.55;;;;;;;18.52;83.08;101818.53;5010243;28;20647;-81
2022/08/13 06:06:14;;;;;;;3.53;2.45;;;;;;;18.73;82.75;101816.25;5019561;28;20068;-81
2022/08/13 06:08:42;;;;;;;2.60;2.40;;;;;;;18.94;82.25;101816.69;5019954;28;20044;-81
2022/08/13 06:11:16;;;;;;;3.25;2.45;;;;;;;19.20;81.33;101815.94;5001392;28;20040;-82
2022/08/13 06:13:42;;;;;;;3.08;2.30;;;;;;;19.44;80.51;101823.34;5018176;28;20035;-81
2022/08/13 06:16:12;;;;;;;2.42;2.22;;;;;;;19.59;79.39;101819.59;5001180;28;20083;-81
2022/08/13 06:18:46;;;;;;;3.45;2.40;;;;;;;19.79;78.97;101818.19;5019320;28;20087;-81
2022/08/13 06:21:13;;;;;;;2.33;2.13;;;;;;;19.97;78.50;101817.94;5003371;28;20091;-81
2022/08/13 06:23:45;;;;;;;2.35;2.05;;;;;;;20.17;78.37;101815.66;5019321;28;20068;-82
2022/08/13 06:26:12;;;;;;;2.47;2.28;;;;;;;20.34;77.76;101815.31;5019433;28;20067;-82
2022/08/13 06:28:39;;;;;;;3.80;2.20;;;;;;;20.56;77.37;101815.59;5021472;28;20619;-81
2022/08/13 06:31:07;;;;;;;2.38;2.17;;;;;;;20.70;76.98;101818.13;5019230;28;20165;-81
2022/08/13 06:33:35;;;;;;;1.98;1.83;;;;;;;20.91;76.93;101814.00;5020272;28;20041;-82
2022/08/13 06:36:14;;;;;;;2.50;2.10;;;;;;;21.10;76.38;101818.84;5019496;28;20081;-81
2022/08/13 06:38:49;;;;;;;2.55;2.20;;;;;;;21.27;75.96;101821.16;5018218;28;20036;-82
2022/08/13 06:41:17;;;;;;;2.45;2.10;;;;;;;21.43;75.96;101819.97;5019963;28;20493;-82
2022/08/13 06:43:44;;;;;;;3.42;1.90;;;;;;;21.64;75.50;101825.53;5018120;28;20065;-82
2022/08/13 06:46:14;;;;;;;2.90;2.17;;;;;;;21.74;74.93;101836.50;5019149;28;20033;-82
2022/08/13 06:48:40;;;;;;;2.42;2.10;;;;;;;21.89;75.16;101834.41;5000296;28;20029;-81
2022/08/13 06:51:07;;;;;;;2.10;1.95;;;;;;;22.07;75.25;101824.03;5000357;28;20497;-82
2022/08/13 06:53:35;;;;;;;2.63;2.00;;;;;;;22.23;74.58;101829.06;5018356;28;20063;-82
2022/08/13 06:56:22;;;;;;;1.88;1.73;;;;;;;22.47;72.41;101836.16;4999500;28;20408;-82
2022/08/13 06:58:50;;;;;;;3.72;1.80;;;;;;;22.64;73.67;101832.13;5017577;28;21426;-82
2022/08/13 07:01:19;;;;;;;1.90;1.70;;;;;;;22.75;73.13;101822.28;5017583;28;20037;-82
2022/08/13 07:03:46;;;;;;;2.72;1.73;;;;;;;22.87;72.69;101829.38;5018785;28;20030;-82
2022/08/13 07:06:19;;;;;;;2.20;2.00;;;;;;;23.01;72.25;101828.22;5018580;28;20041;-83
2022/08/13 07:08:45;;;;;;;1.92;1.75;;;;;;;23.13;72.03;101830.88;5019351;28;20133;-82
2022/08/13 07:11:23;;;;;;;2.30;1.63;;;;;;;23.27;71.65;101833.25;4984930;28;20495;-83
2022/08/13 07:13:54;;;;;;;1.70;1.60;;;;;;;23.54;70.75;101829.22;5019852;28;20163;-82
2022/08/13 07:16:22;;;;;;;2.10;1.90;;;;;;;23.78;70.78;101830.81;5017453;28;20089;-82
2022/08/13 07:18:49;;;;;;;2.17;1.98;;;;;;;23.92;69.95;101821.53;5004202;28;20030;-82
2022/08/13 07:21:17;;;;;;;3.15;1.60;;;;;;;24.07;70.06;101827.44;5019499;28;20617;-83
2022/08/13 07:23:43;;;;;;;2.28;1.70;;;;;;;24.27;69.44;101830.22;5022369;28;20113;-83
2022/08/13 07:26:14;;;;;;;3.78;1.80;;;;;;;24.42;68.86;101836.13;5020800;28;20037;-82
2022/08/13 07:28:45;;;;;;;5.03;1.50;;;;;;;24.55;67.78;101844.84;5023391;28;20034;-80
2022/08/13 07:31:11;;;;;;;1.70;1.60;;;;;;;24.68;68.25;101835.63;5022737;28;20033;-80
2022/08/13 07:33:39;;;;;;;2.40;1.42;;;;;;;24.79;67.54;101840.06;4986803;28;20038;-81
2022/08/13 07:36:12;;;;;;;1.60;1.50;;;;;;;24.87;66.85;101833.97;5009003;28;20395;-81
2022/08/13 07:38:38;;;;;;;1.65;1.35;;;;;;;24.95;66.60;101839.56;5022143;28;20425;-81
2022/08/13 07:41:04;;;;;;;1.88;1.50;;;;;;;25.04;66.69;101844.13;5020536;28;20049;-82
2022/08/13 07:43:36;;;;;;;1.50;1.40;;;;;;;25.12;65.45;101845.25;5023118;28;20033;-81
2022/08/13 07:46:15;;;;;;;1.50;1.40;;;;;;;25.21;65.36;101844.41;5022420;28;20111;-82
2022/08/13 07:48:51;;;;;;;1.67;1.58;;;;;;;25.35;63.56;101841.28;5017159;28;20123;-81
2022/08/13 07:51:21;;;;;;;1.30;1.17;;;;;;;25.49;64.93;101841.84;5006691;28;20559;-82
2022/08/13 07:53:51;;;;;;;1.13;1.10;;;;;;;25.65;64.01;101845.84;5022687;28;20042;-82
2022/08/13 07:56:35;;;;;;;1.38;1.27;;;;;;;25.74;61.46;101834.09;5021656;28;20145;-81
2022/08/13 07:59:01;;;;;;;1.67;1.40;;;;;;;25.92;63.08;101844.19;5028535;28;20048;-82
2022/08/13 08:01:29;;;;;;;1.13;1.13;;;;;;;26.03;62.87;101847.59;5024890;28;20076;-82
2022/08/13 08:03:58;;;;;;;1.50;1.40;;;;;;;26.26;62.15;101841.81;5026796;28;20410;-82
2022/08/13 08:06:25;;;;;;;1.20;1.15;;;;;;;26.42;62.21;101854.72;5015768;28;20558;-82
2022/08/13 08:08:54;;;;;;;0.93;0.93;;;;;;;26.54;62.00;101847.22;5027421;28;20036;-82
2022/08/13 08:14:05;;;;;;;1.40;1.30;;;;;;;26.91;60.12;101840.03;5028030;28;20033;-82
2022/08/13 08:16:31;;;;;;;1.30;1.20;;;;;;;27.05;60.40;101845.94;5013186;28;20709;-80
2022/08/13 08:19:00;;;;;;;1.20;1.20;;;;;;;27.25;58.80;101852.91;5030086;28;20037;-83
2022/08/13 08:21:27;;;;;;;1.13;1.10;;;;;;;27.43;59.07;101846.63;5010562;28;20044;-82
2022/08/13 08:23:58;;;;;;;1.60;1.48;;;;;;;27.56;57.12;101850.81;5014467;28;20024;-82
2022/08/13 08:26:29;;;;;;;1.50;1.40;;;;;;;27.65;57.18;101852.59;5030994;28;20037;-82
2022/08/13 08:28:57;;;;;;;1.45;1.05;;;;;;;27.78;57.35;101847.59;5026044;28;20609;-82
2022/08/13 08:31:23;;;;;;;1.40;1.30;;;;;;;27.89;56.66;101846.44;5009988;28;20132;-82
2022/08/13 08:33:50;;;;;;;1.23;1.20;;;;;;;28.03;56.11;101847.75;5015555;28;20427;-82
2022/08/13 08:36:15;;;;;;;1.40;1.30;;;;;;;28.17;56.01;101848.16;5032646;28;20071;-82
2022/08/13 08:44:16;;;;;;;1.83;1.25;;;;;;;28.60;54.87;101853.63;5012809;28;20033;-81
2022/08/13 08:46:42;;;;;;;1.83;1.20;;;;;;;28.71;53.94;101860.63;5033332;28;20045;-82
2022/08/13 08:49:07;;;;;;;2.85;2.28;;;;;;;28.76;53.78;101860.97;5018159;28;20051;-81
2022/08/13 08:51:33;;;;;;;1.00;1.00;;;;;;;28.86;53.77;101858.13;5008688;28;20041;-81
2022/08/13 08:54:00;;;;;;;1.35;1.00;;;;;;;28.98;52.76;101862.25;5033330;28;20590;-81
2022/08/13 08:56:26;;;;;;;1.27;1.10;;;;;;;29.03;52.38;101858.19;5013975;28;20120;-82
2022/08/13 08:58:55;;;;;;;1.75;1.20;;;;;;;29.06;51.99;101855.97;5025678;28;20372;-81
2022/08/13 09:01:24;;;;;;;1.20;1.10;;;;;;;29.10;51.80;101857.34;5016654;28;20959;-82
2022/08/13 09:03:50;;;;;;;3.30;1.20;;;;;;;29.23;51.64;101854.09;5000554;28;20034;-82
2022/08/13 09:06:15;;;;;;;1.13;1.08;;;;;;;29.33;50.89;101858.53;5017197;28;20057;-81
2022/08/13 09:08:46;;;;;;;1.40;1.30;;;;;;;29.42;49.71;101852.91;5016403;28;20060;-82
2022/08/13 09:11:14;;;;;;;1.83;1.20;;;;;;;29.44;50.32;101858.19;5008657;28;20025;-81
2022/08/13 09:13:49;;;;;;;0.90;0.90;;;;;;;29.53;49.69;101851.72;4983061;28;20055;-81
2022/08/13 09:16:16;;;;;;;1.10;1.00;;;;;;;29.63;50.04;101843.38;5000521;28;20045;-82
2022/08/13 09:18:43;;;;;;;1.45;1.27;;;;;;;29.72;50.16;101846.09;4999524;28;20029;-81
2022/08/13 09:21:08;;;;;;;1.17;1.08;;;;;;;29.75;49.73;101843.00;5017085;28;20049;-82
2022/08/13 09:23:34;;;;;;;1.02;0.98;;;;;;;29.81;49.68;101842.31;4998093;28;20045;-81
2022/08/13 09:26:04;;;;;;;1.00;1.00;;;;;;;29.93;49.62;101849.13;5000004;28;20049;-83
2022/08/13 09:28:30;;;;;;;1.73;1.00;;;;;;;29.91;49.17;101847.59;5000708;28;20044;-82
2022/08/13 09:30:55;;;;;;;1.13;1.02;;;;;;;29.95;48.90;101844.31;5016177;28;20476;-82
2022/08/13 09:33:31;;;;;;;2.67;1.45;;;;;;;30.00;48.86;101843.78;5015240;28;20033;-82
2022/08/13 09:35:57;;;;;;;2.35;0.93;;;;;;;30.11;48.90;101839.03;5017970;28;20071;-82
2022/08/13 09:38:23;;;;;;;1.23;1.10;;;;;;;30.17;48.45;101841.91;5016578;28;20740;-82
2022/08/13 09:41:09;;;;;;;1.75;1.10;;;;;;;30.22;46.26;101834.03;5015781;28;20033;-82
2022/08/13 09:43:41;;;;;;;2.92;1.10;;;;;;;30.27;46.91;101827.19;5016595;28;20038;-82
2022/08/13 09:46:08;;;;;;;1.20;1.10;;;;;;;30.34;47.82;101831.75;5015697;28;20084;-82
2022/08/13 09:48:37;;;;;;;1.98;1.00;;;;;;;30.43;46.91;101832.56;5016258;28;20037;-82
2022/08/13 09:51:03;;;;;;;1.50;0.98;;;;;;;30.50;46.80;101830.00;5016772;28;20033;-82
2022/08/13 09:53:29;;;;;;;1.30;0.93;;;;;;;30.48;45.99;101819.22;5012564;28;20599;-81
2022/08/13 09:55:56;;;;;;;1.95;1.00;;;;;;;30.55;46.22;101815.78;5016069;28;20022;-81
2022/08/13 09:58:23;;;;;;;1.02;1.00;;;;;;;30.61;45.07;101818.63;5011650;28;20371;-82
2022/08/13 10:00:50;;;;;;;1.10;1.00;;;;;;;30.63;43.79;101811.09;4996051;28;20045;-81
2022/08/13 10:03:18;;;;;;;1.55;1.25;;;;;;;30.58;43.33;101818.16;5018935;28;20087;-81
2022/08/13 10:05:44;;;;;;;1.30;1.20;;;;;;;30.54;42.58;101816.81;5018965;28;22317;-82
2022/08/13 10:08:17;;;;;;;1.10;1.10;;;;;;;30.54;41.72;101806.72;5018193;28;20811;-82
2022/08/13 10:10:44;;;;;;;1.63;0.90;;;;;;;30.60;41.77;101805.16;5017909;28;20030;-81
2022/08/13 10:13:11;;;;;;;0.93;0.80;;;;;;;30.65;41.23;101804.63;5018419;28;20033;-81
2022/08/13 10:15:38;;;;;;;1.23;1.13;;;;;;;30.66;40.88;101800.88;5019679;28;20038;-82
2022/08/13 10:18:03;;;;;;;0.90;0.90;;;;;;;30.62;41.11;101806.66;5018573;28;20092;-82
2022/08/13 10:20:45;;;;;;;0.80;0.80;;;;;;;30.55;39.54;101793.94;5000905;28;20059;-82
2022/08/13 10:23:15;;;;;;;1.00;0.90;;;;;;;30.48;39.78;101791.91;5019303;28;20411;-81
2022/08/13 10:25:43;;;;;;;1.10;0.95;;;;;;;30.48;40.27;101796.53;5018521;28;20043;-81
2022/08/13 10:28:25;;;;;;;0.80;0.80;;;;;;;30.39;38.97;101787.50;5000503;28;20462;-81
2022/08/13 10:30:51;;;;;;;;;;;;;;;30.28;37.53;101779.75;5019298;28;20435;-82
2022/08/13 10:33:17;;;;;;;1.17;1.10;;;;;;;30.23;40.10;101783.03;5004870;28;19925;-81
2022/08/13 10:35:45;;;;;;;1.10;1.00;;;;;;;30.22;39.95;101784.03;5021759;28;20029;-82
2022/08/13 10:38:17;;;;;;;1.10;1.10;;;;;;;30.21;39.41;101780.47;5019644;28;20036;-82
2022/08/13 10:40:43;;;;;;;1.13;0.90;;;;;;;30.14;39.83;101782.19;5020614;28;20033;-81
2022/08/13 10:43:10;;;;;;;1.85;0.90;;;;;;;30.11;39.51;101776.25;5017743;28;20032;-82
2022/08/13 10:45:42;;;;;;;1.15;1.05;;;;;;;30.01;39.43;101773.69;5018931;28;20078;-81
2022/08/13 10:48:11;;;;;;;0.90;0.90;;;;;;;29.98;38.79;101779.50;5019545;28;20060;-82
2022/08/13 10:50:40;;;;;;;1.02;0.90;;;;;;;29.95;39.86;101776.09;5004575;28;20037;-83
2022/08/13 10:53:06;;;;;;;1.27;1.10;;;;;;;29.92;39.56;101776.47;5002029;28;20029;-82
2022/08/13 10:55:33;;;;;;;1.00;1.00;;;;;;;29.87;39.46;101773.41;5003164;28;20057;-82
2022/08/13 10:57:59;;;;;;;1.00;1.00;;;;;;;29.86;39.74;101766.25;5018468;28;20034;-82
2022/08/13 11:00:25;;;;;;;1.67;1.10;;;;;;;29.88;39.60;101768.78;5021469;28;20477;-82
2022/08/13 11:02:50;;;;;;;0.98;0.98;;;;;;;29.85;40.29;101769.16;5008730;28;20031;-82
2022/08/13 11:05:25;;;;;;;1.58;1.30;;;;;;;29.85;39.61;101767.25;5020538;28;20175;-82
2022/08/13 11:07:52;;;;;;;1.85;1.05;;;;;;;29.89;38.77;101774.06;5021763;28;20252;-83
2022/08/13 11:10:20;;;;;;;1.08;0.98;;;;;;;29.90;39.06;101758.56;5020211;28;20041;-82
2022/08/13 11:12:50;;;;;;;1.02;0.90;;;;;;;29.87;38.50;101761.63;5023076;28;20141;-82
2022/08/13 11:15:20;;;;;;;1.02;1.02;;;;;;;29.85;38.48;101761.81;5013685;28;20049;-82
2022/08/13 11:17:53;;;;;;;1.23;1.10;;;;;;;29.87;38.87;101764.34;5020949;28;20048;-82
2022/08/13 11:20:20;;;;;;;0.90;0.90;;;;;;;29.88;38.50;101761.47;5023577;28;20025;-82
2022/08/13 11:22:47;;;;;;;1.00;0.90;;;;;;;29.90;38.14;101761.28;5024385;28;20045;-82
2022/08/13 11:25:13;;;;;;;1.00;1.00;;;;;;;29.84;38.04;101762.00;5020537;28;20026;-82
2022/08/13 11:27:39;;;;;;;0.90;0.90;;;;;;;29.83;37.98;101755.69;5008287;28;20033;-82
2022/08/13 11:30:09;;;;;;;1.58;1.10;;;;;;;29.81;38.24;101750.38;5004557;28;20120;-82
2022/08/13 11:32:37;;;;;;;1.25;1.13;;;;;;;29.84;38.39;101746.47;5020273;28;20503;-82
2022/08/13 11:35:05;;;;;;;1.10;1.00;;;;;;;29.86;38.77;101749.88;5020955;28;20033;-82
2022/08/13 11:37:31;;;;;;;0.93;0.93;;;;;;;29.87;38.20;101750.72;5003316;28;20040;-82
2022/08/13 11:39:57;;;;;;;1.30;1.20;;;;;;;29.89;37.45;101746.78;5005199;28;20091;-82
2022/08/13 11:42:22;;;;;;;1.23;1.05;;;;;;;29.93;37.39;101744.56;5021783;28;20029;-82
2022/08/13 11:44:48;;;;;;;1.33;1.02;;;;;;;29.91;37.59;101742.00;5021160;28;20029;-82
2022/08/13 11:47:13;;;;;;;1.10;1.00;;;;;;;29.90;38.13;101739.47;5021025;28;20038;-81
2022/08/13 11:49:41;;;;;;;1.00;1.00;;;;;;;29.91;37.69;101736.53;5017561;28;20305;-82